Terminal Aerodrome Forecast
Issued by NWS

Home | Current Version | Previous Version | Text Only | Print | Product List | Glossary On
Versions: 1 2 3 4 5 6 7 8 9 10 11 12 13 14 15 16
000
FTAK31 PAJN 292327
TAFAYA
TAF
PAYA 292327Z 3000/3024 14006KT P6SM VCSH BKN015 BKN025
      TEMPO 3000/3004 16008G15KT
     FM300900 11003KT P6SM -SHRA BKN009 OVC020
     FM301800 VRB03KT P6SM VCSH BKN025 OVC050
      AMD LTD TO CLD VIS AND WIND 3001/3010=

USA.gov is the U.S. government's official web portal to all federal, state and local government web resources and services.